sensor_id;sensor_type;location;lat;lon;timestamp;temperature;humidity
52555;DHT22;38455;52.710;6.502;2022-11-11T00:00:18;10.80;99.90
52555;DHT22;38455;52.710;6.502;2022-11-11T00:02:44;10.80;99.90
52555;DHT22;38455;52.710;6.502;2022-11-11T00:05:10;10.80;99.90
52555;DHT22;38455;52.710;6.502;2022-11-11T00:07:35;10.80;99.90
52555;DHT22;38455;52.710;6.502;2022-11-11T00:10:01;10.80;99.90
52555;DHT22;38455;52.710;6.502;2022-11-11T00:12:26;10.80;99.90
52555;DHT22;38455;52.710;6.502;2022-11-11T00:14:52;10.80;99.90
52555;DHT22;38455;52.710;6.502;2022-11-11T00:17:18;10.90;99.90
52555;DHT22;38455;52.710;6.502;2022-11-11T00:20:02;10.90;99.90
52555;DHT22;38455;52.710;6.502;2022-11-11T00:22:46;10.90;99.90
52555;DHT22;38455;52.710;6.502;2022-11-11T00:25:31;10.90;99.90
52555;DHT22;38455;52.710;6.502;2022-11-11T00:28:05;10.90;99.90
52555;DHT22;38455;52.710;6.502;2022-11-11T00:30:30;10.80;99.90
52555;DHT22;38455;52.710;6.502;2022-11-11T00:32:56;10.90;99.90
52555;DHT22;38455;52.710;6.502;2022-11-11T00:35:22;10.90;99.90
52555;DHT22;38455;52.710;6.502;2022-11-11T00:38:16;10.90;99.90
52555;DHT22;38455;52.710;6.502;2022-11-11T00:41:00;10.80;99.90
52555;DHT22;38455;52.710;6.502;2022-11-11T00:43:26;10.90;99.90
52555;DHT22;38455;52.710;6.502;2022-11-11T00:45:51;10.90;99.90
52555;DHT22;38455;52.710;6.502;2022-11-11T00:48:17;10.90;99.90
52555;DHT22;38455;52.710;6.502;2022-11-11T00:51:09;10.80;99.90
52555;DHT22;38455;52.710;6.502;2022-11-11T00:53:34;10.70;99.90
52555;DHT22;38455;52.710;6.502;2022-11-11T00:56:03;10.70;99.90
52555;DHT22;38455;52.710;6.502;2022-11-11T00:58:29;10.60;99.90
52555;DHT22;38455;52.710;6.502;2022-11-11T01:00:54;10.60;99.90
52555;DHT22;38455;52.710;6.502;2022-11-11T01:03:22;10.60;99.90
52555;DHT22;38455;52.710;6.502;2022-11-11T01:05:48;10.50;99.90
52555;DHT22;38455;52.710;6.502;2022-11-11T01:08:14;10.40;99.90
52555;DHT22;38455;52.710;6.502;2022-11-11T01:10:39;10.30;99.90
52555;DHT22;38455;52.710;6.502;2022-11-11T01:13:21;10.30;99.90
52555;DHT22;38455;52.710;6.502;2022-11-11T01:15:49;10.30;99.90
52555;DHT22;38455;52.710;6.502;2022-11-11T01:18:18;10.20;99.90
52555;DHT22;38455;52.710;6.502;2022-11-11T01:20:45;10.10;99.90
52555;DHT22;38455;52.710;6.502;2022-11-11T01:23:11;10.10;99.90
52555;DHT22;38455;52.710;6.502;2022-11-11T01:25:39;10.10;99.90
52555;DHT22;38455;52.710;6.502;2022-11-11T01:28:06;10.00;99.90
52555;DHT22;38455;52.710;6.502;2022-11-11T01:30:33;10.00;99.90
52555;DHT22;38455;52.710;6.502;2022-11-11T01:33:01;10.00;99.90
52555;DHT22;38455;52.710;6.502;2022-11-11T01:35:27;9.90;99.90
52555;DHT22;38455;52.710;6.502;2022-11-11T01:37:53;10.00;99.90
52555;DHT22;38455;52.710;6.502;2022-11-11T01:40:19;9.90;99.90
52555;DHT22;38455;52.710;6.502;2022-11-11T01:42:49;9.90;99.90
52555;DHT22;38455;52.710;6.502;2022-11-11T01:48:18;9.80;99.90
52555;DHT22;38455;52.710;6.502;2022-11-11T01:51:06;9.70;99.90
52555;DHT22;38455;52.710;6.502;2022-11-11T01:53:34;9.80;99.90
52555;DHT22;38455;52.710;6.502;2022-11-11T01:56:00;9.80;99.90
52555;DHT22;38455;52.710;6.502;2022-11-11T01:58:27;9.80;99.90
52555;DHT22;38455;52.710;6.502;2022-11-11T02:00:53;9.80;99.90
52555;DHT22;38455;52.710;6.502;2022-11-11T02:03:20;9.70;99.90
52555;DHT22;38455;52.710;6.502;2022-11-11T02:05:48;9.70;99.90
52555;DHT22;38455;52.710;6.502;2022-11-11T02:08:28;9.70;99.90
52555;DHT22;38455;52.710;6.502;2022-11-11T02:11:08;9.70;99.90
52555;DHT22;38455;52.710;6.502;2022-11-11T02:13:37;9.60;99.90
52555;DHT22;38455;52.710;6.502;2022-11-11T02:16:23;9.70;99.90
52555;DHT22;38455;52.710;6.502;2022-11-11T02:18:49;9.70;99.90
52555;DHT22;38455;52.710;6.502;2022-11-11T02:21:34;9.60;99.90
52555;DHT22;38455;52.710;6.502;2022-11-11T02:24:08;9.60;99.90
52555;DHT22;38455;52.710;6.502;2022-11-11T02:26:36;9.60;99.90
52555;DHT22;38455;52.710;6.502;2022-11-11T02:29:06;9.60;99.90
52555;DHT22;38455;52.710;6.502;2022-11-11T02:31:33;9.60;99.90
52555;DHT22;38455;52.710;6.502;2022-11-11T02:33:59;9.60;99.90
52555;DHT22;38455;52.710;6.502;2022-11-11T02:36:25;9.60;99.90
52555;DHT22;38455;52.710;6.502;2022-11-11T02:38:51;9.60;99.90
52555;DHT22;38455;52.710;6.502;2022-11-11T02:41:17;9.60;99.90
52555;DHT22;38455;52.710;6.502;2022-11-11T02:44:02;9.60;99.90
52555;DHT22;38455;52.710;6.502;2022-11-11T02:46:27;9.60;99.90
52555;DHT22;38455;52.710;6.502;2022-11-11T02:48:53;9.60;99.90
52555;DHT22;38455;52.710;6.502;2022-11-11T02:51:19;9.50;99.90
52555;DHT22;38455;52.710;6.502;2022-11-11T02:53:44;9.40;99.90
52555;DHT22;38455;52.710;6.502;2022-11-11T02:56:10;9.50;99.90
52555;DHT22;38455;52.710;6.502;2022-11-11T02:58:36;9.50;99.90
52555;DHT22;38455;52.710;6.502;2022-11-11T03:01:01;9.60;99.90
52555;DHT22;38455;52.710;6.502;2022-11-11T03:03:28;9.50;99.90
52555;DHT22;38455;52.710;6.502;2022-11-11T03:05:54;9.50;99.90
52555;DHT22;38455;52.710;6.502;2022-11-11T03:08:19;9.50;99.90
52555;DHT22;38455;52.710;6.502;2022-11-11T03:10:45;9.50;99.90
52555;DHT22;38455;52.710;6.502;2022-11-11T03:13:11;9.60;99.90
52555;DHT22;38455;52.710;6.502;2022-11-11T03:15:37;9.60;99.90
52555;DHT22;38455;52.710;6.502;2022-11-11T03:18:02;9.50;99.90
52555;DHT22;38455;52.710;6.502;2022-11-11T03:20:28;9.50;99.90
52555;DHT22;38455;52.710;6.502;2022-11-11T03:23:14;9.50;99.90
52555;DHT22;38455;52.710;6.502;2022-11-11T03:25:45;9.60;99.90
52555;DHT22;38455;52.710;6.502;2022-11-11T03:28:16;9.60;99.90
52555;DHT22;38455;52.710;6.502;2022-11-11T03:30:47;9.60;99.90
52555;DHT22;38455;52.710;6.502;2022-11-11T03:33:13;9.60;99.90
52555;DHT22;38455;52.710;6.502;2022-11-11T03:35:40;9.50;99.90
52555;DHT22;38455;52.710;6.502;2022-11-11T03:38:08;9.60;99.90
52555;DHT22;38455;52.710;6.502;2022-11-11T03:40:44;9.60;99.90
52555;DHT22;38455;52.710;6.502;2022-11-11T03:43:11;9.50;99.90
52555;DHT22;38455;52.710;6.502;2022-11-11T03:45:37;9.60;99.90
52555;DHT22;38455;52.710;6.502;2022-11-11T03:48:03;9.50;99.90
52555;DHT22;38455;52.710;6.502;2022-11-11T03:50:30;9.60;99.90
52555;DHT22;38455;52.710;6.502;2022-11-11T03:52:56;9.50;99.90
52555;DHT22;38455;52.710;6.502;2022-11-11T03:55:21;9.50;99.90
52555;DHT22;38455;52.710;6.502;2022-11-11T03:57:47;9.50;99.90
52555;DHT22;38455;52.710;6.502;2022-11-11T04:00:18;9.60;99.90
52555;DHT22;38455;52.710;6.502;2022-11-11T04:02:45;9.60;99.90
52555;DHT22;38455;52.710;6.502;2022-11-11T04:05:29;9.60;99.90
52555;DHT22;38455;52.710;6.502;2022-11-11T04:08:15;9.60;99.90
52555;DHT22;38455;52.710;6.502;2022-11-11T04:11:02;9.70;99.90
52555;DHT22;38455;52.710;6.502;2022-11-11T04:13:28;9.70;99.90
52555;DHT22;38455;52.710;6.502;2022-11-11T04:16:13;9.70;99.90
52555;DHT22;38455;52.710;6.502;2022-11-11T04:18:39;9.70;99.90
52555;DHT22;38455;52.710;6.502;2022-11-11T04:21:23;9.70;99.90
52555;DHT22;38455;52.710;6.502;2022-11-11T04:24:09;9.90;99.90
52555;DHT22;38455;52.710;6.502;2022-11-11T04:26:55;9.90;99.90
52555;DHT22;38455;52.710;6.502;2022-11-11T04:29:21;9.90;99.90
52555;DHT22;38455;52.710;6.502;2022-11-11T04:32:04;10.00;99.90
52555;DHT22;38455;52.710;6.502;2022-11-11T04:34:53;10.10;99.90
52555;DHT22;38455;52.710;6.502;2022-11-11T04:37:19;10.00;99.90
52555;DHT22;38455;52.710;6.502;2022-11-11T04:39:46;10.10;99.90
52555;DHT22;38455;52.710;6.502;2022-11-11T04:42:30;10.10;99.90
52555;DHT22;38455;52.710;6.502;2022-11-11T04:44:57;10.10;99.90
52555;DHT22;38455;52.710;6.502;2022-11-11T04:47:58;10.10;99.90
52555;DHT22;38455;52.710;6.502;2022-11-11T04:50:28;10.20;99.90
52555;DHT22;38455;52.710;6.502;2022-11-11T04:52:54;10.20;99.90
52555;DHT22;38455;52.710;6.502;2022-11-11T04:55:20;10.20;99.90
52555;DHT22;38455;52.710;6.502;2022-11-11T04:58:04;10.30;99.90
52555;DHT22;38455;52.710;6.502;2022-11-11T05:00:29;10.20;99.90
52555;DHT22;38455;52.710;6.502;2022-11-11T05:02:56;10.20;99.90
52555;DHT22;38455;52.710;6.502;2022-11-11T05:08:36;10.20;99.90
52555;DHT22;38455;52.710;6.502;2022-11-11T05:11:25;10.20;99.90
52555;DHT22;38455;52.710;6.502;2022-11-11T05:13:53;10.10;99.90
52555;DHT22;38455;52.710;6.502;2022-11-11T05:16:40;10.10;99.90
52555;DHT22;38455;52.710;6.502;2022-11-11T05:19:26;10.10;99.90
52555;DHT22;38455;52.710;6.502;2022-11-11T05:22:21;10.10;99.90
52555;DHT22;38455;52.710;6.502;2022-11-11T05:24:47;10.10;99.90
52555;DHT22;38455;52.710;6.502;2022-11-11T05:27:31;10.10;99.90
52555;DHT22;38455;52.710;6.502;2022-11-11T05:29:57;10.10;99.90
52555;DHT22;38455;52.710;6.502;2022-11-11T05:32:23;10.00;99.90
52555;DHT22;38455;52.710;6.502;2022-11-11T05:34:49;10.10;99.90
52555;DHT22;38455;52.710;6.502;2022-11-11T05:37:15;10.10;99.90
52555;DHT22;38455;52.710;6.502;2022-11-11T05:39:42;10.10;99.90
52555;DHT22;38455;52.710;6.502;2022-11-11T05:42:08;10.20;99.90
52555;DHT22;38455;52.710;6.502;2022-11-11T05:44:33;10.20;99.90
52555;DHT22;38455;52.710;6.502;2022-11-11T05:46:59;10.20;99.90
52555;DHT22;38455;52.710;6.502;2022-11-11T05:49:25;10.20;99.90
52555;DHT22;38455;52.710;6.502;2022-11-11T05:51:51;10.20;99.90
52555;DHT22;38455;52.710;6.502;2022-11-11T05:54:18;10.30;99.90
52555;DHT22;38455;52.710;6.502;2022-11-11T05:56:44;10.20;99.90
52555;DHT22;38455;52.710;6.502;2022-11-11T05:59:10;10.30;99.90
52555;DHT22;38455;52.710;6.502;2022-11-11T06:01:36;10.30;99.90
52555;DHT22;38455;52.710;6.502;2022-11-11T06:04:03;10.30;99.90
52555;DHT22;38455;52.710;6.502;2022-11-11T06:06:28;10.40;99.90
52555;DHT22;38455;52.710;6.502;2022-11-11T06:08:54;10.30;99.90
52555;DHT22;38455;52.710;6.502;2022-11-11T06:11:20;10.30;99.90
52555;DHT22;38455;52.710;6.502;2022-11-11T06:13:46;10.30;99.90
52555;DHT22;38455;52.710;6.502;2022-11-11T06:16:12;10.30;99.90
52555;DHT22;38455;52.710;6.502;2022-11-11T06:18:37;10.30;99.90
52555;DHT22;38455;52.710;6.502;2022-11-11T06:21:03;10.30;99.90
52555;DHT22;38455;52.710;6.502;2022-11-11T06:23:29;10.30;99.90
52555;DHT22;38455;52.710;6.502;2022-11-11T06:25:55;10.30;99.90
52555;DHT22;38455;52.710;6.502;2022-11-11T06:28:44;10.30;99.90
52555;DHT22;38455;52.710;6.502;2022-11-11T06:31:12;10.30;99.90
52555;DHT22;38455;52.710;6.502;2022-11-11T06:33:38;10.40;99.90
52555;DHT22;38455;52.710;6.502;2022-11-11T06:36:05;10.30;99.90
52555;DHT22;38455;52.710;6.502;2022-11-11T06:38:31;10.40;99.90
52555;DHT22;38455;52.710;6.502;2022-11-11T06:40:57;10.40;99.90
52555;DHT22;38455;52.710;6.502;2022-11-11T06:43:23;10.40;99.90
52555;DHT22;38455;52.710;6.502;2022-11-11T06:45:53;10.40;99.90
52555;DHT22;38455;52.710;6.502;2022-11-11T06:48:20;10.40;99.90
52555;DHT22;38455;52.710;6.502;2022-11-11T06:50:46;10.40;99.90
52555;DHT22;38455;52.710;6.502;2022-11-11T06:53:13;10.50;99.90
52555;DHT22;38455;52.710;6.502;2022-11-11T06:55:40;10.50;99.90
52555;DHT22;38455;52.710;6.502;2022-11-11T06:58:14;10.50;99.90
52555;DHT22;38455;52.710;6.502;2022-11-11T07:00:43;10.50;99.90
52555;DHT22;38455;52.710;6.502;2022-11-11T07:03:12;10.50;99.90
52555;DHT22;38455;52.710;6.502;2022-11-11T07:05:38;10.50;99.90
52555;DHT22;38455;52.710;6.502;2022-11-11T07:08:05;10.50;99.90
52555;DHT22;38455;52.710;6.502;2022-11-11T07:10:33;10.50;99.90
52555;DHT22;38455;52.710;6.502;2022-11-11T07:12:58;10.50;99.90
52555;DHT22;38455;52.710;6.502;2022-11-11T07:15:24;10.50;99.90
52555;DHT22;38455;52.710;6.502;2022-11-11T07:17:50;10.60;99.90
52555;DHT22;38455;52.710;6.502;2022-11-11T07:20:16;10.50;99.90
52555;DHT22;38455;52.710;6.502;2022-11-11T07:22:42;10.60;99.90
52555;DHT22;38455;52.710;6.502;2022-11-11T07:25:08;10.60;99.90
52555;DHT22;38455;52.710;6.502;2022-11-11T07:27:38;10.60;99.90
52555;DHT22;38455;52.710;6.502;2022-11-11T07:30:04;10.60;99.90
52555;DHT22;38455;52.710;6.502;2022-11-11T07:32:30;10.60;99.90
52555;DHT22;38455;52.710;6.502;2022-11-11T07:34:56;10.60;99.90
52555;DHT22;38455;52.710;6.502;2022-11-11T07:37:22;10.70;99.90
52555;DHT22;38455;52.710;6.502;2022-11-11T07:39:47;10.70;99.90
52555;DHT22;38455;52.710;6.502;2022-11-11T07:42:13;10.70;99.90
52555;DHT22;38455;52.710;6.502;2022-11-11T07:44:40;10.70;99.90
52555;DHT22;38455;52.710;6.502;2022-11-11T07:47:06;10.70;99.90
52555;DHT22;38455;52.710;6.502;2022-11-11T07:49:31;10.70;99.90
52555;DHT22;38455;52.710;6.502;2022-11-11T07:51:57;10.70;99.90
52555;DHT22;38455;52.710;6.502;2022-11-11T07:54:23;10.80;99.90
52555;DHT22;38455;52.710;6.502;2022-11-11T07:56:49;10.80;99.90
52555;DHT22;38455;52.710;6.502;2022-11-11T07:59:14;10.70;99.90
52555;DHT22;38455;52.710;6.502;2022-11-11T08:01:40;10.80;99.90
52555;DHT22;38455;52.710;6.502;2022-11-11T08:04:05;10.80;99.90
52555;DHT22;38455;52.710;6.502;2022-11-11T08:06:31;10.80;99.90
52555;DHT22;38455;52.710;6.502;2022-11-11T08:08:57;10.80;99.90
52555;DHT22;38455;52.710;6.502;2022-11-11T08:11:22;10.80;99.90
52555;DHT22;38455;52.710;6.502;2022-11-11T08:14:07;10.90;99.90
52555;DHT22;38455;52.710;6.502;2022-11-11T08:16:33;10.90;99.90
52555;DHT22;38455;52.710;6.502;2022-11-11T08:18:59;10.90;99.90
52555;DHT22;38455;52.710;6.502;2022-11-11T08:21:25;10.90;99.90
52555;DHT22;38455;52.710;6.502;2022-11-11T08:23:51;11.00;99.90
52555;DHT22;38455;52.710;6.502;2022-11-11T08:26:17;11.00;99.90
52555;DHT22;38455;52.710;6.502;2022-11-11T08:28:43;11.00;99.90
52555;DHT22;38455;52.710;6.502;2022-11-11T08:31:09;11.00;99.90
52555;DHT22;38455;52.710;6.502;2022-11-11T08:33:35;11.00;99.90
52555;DHT22;38455;52.710;6.502;2022-11-11T08:36:02;11.00;99.90
52555;DHT22;38455;52.710;6.502;2022-11-11T08:38:28;11.20;99.90
52555;DHT22;38455;52.710;6.502;2022-11-11T08:40:54;11.20;99.90
52555;DHT22;38455;52.710;6.502;2022-11-11T08:43:23;11.20;99.90
52555;DHT22;38455;52.710;6.502;2022-11-11T08:45:53;11.20;99.90
52555;DHT22;38455;52.710;6.502;2022-11-11T08:48:19;11.30;99.90
52555;DHT22;38455;52.710;6.502;2022-11-11T08:50:45;11.30;99.90
52555;DHT22;38455;52.710;6.502;2022-11-11T08:53:11;11.30;99.90
52555;DHT22;38455;52.710;6.502;2022-11-11T08:55:37;11.30;99.90
52555;DHT22;38455;52.710;6.502;2022-11-11T08:58:05;11.30;99.90
52555;DHT22;38455;52.710;6.502;2022-11-11T09:00:32;11.40;99.90
52555;DHT22;38455;52.710;6.502;2022-11-11T09:03:06;11.50;99.90
52555;DHT22;38455;52.710;6.502;2022-11-11T09:05:33;11.50;99.90
52555;DHT22;38455;52.710;6.502;2022-11-11T09:08:03;11.50;99.90
52555;DHT22;38455;52.710;6.502;2022-11-11T09:10:31;11.60;99.90
52555;DHT22;38455;52.710;6.502;2022-11-11T09:12:57;11.60;99.90
52555;DHT22;38455;52.710;6.502;2022-11-11T09:15:23;11.70;99.90
52555;DHT22;38455;52.710;6.502;2022-11-11T09:17:49;11.60;99.90
52555;DHT22;38455;52.710;6.502;2022-11-11T09:20:18;11.70;99.90
52555;DHT22;38455;52.710;6.502;2022-11-11T09:22:45;11.70;99.90
52555;DHT22;38455;52.710;6.502;2022-11-11T09:25:11;11.80;99.90
52555;DHT22;38455;52.710;6.502;2022-11-11T09:27:37;11.80;99.90
52555;DHT22;38455;52.710;6.502;2022-11-11T09:30:04;11.80;99.90
52555;DHT22;38455;52.710;6.502;2022-11-11T09:32:30;11.90;99.90
52555;DHT22;38455;52.710;6.502;2022-11-11T09:34:56;12.00;99.90
52555;DHT22;38455;52.710;6.502;2022-11-11T09:37:22;12.00;99.90
52555;DHT22;38455;52.710;6.502;2022-11-11T09:39:48;12.10;99.90
52555;DHT22;38455;52.710;6.502;2022-11-11T09:42:19;12.20;99.90
52555;DHT22;38455;52.710;6.502;2022-11-11T09:47:58;12.20;99.90
52555;DHT22;38455;52.710;6.502;2022-11-11T09:50:29;12.30;99.90
52555;DHT22;38455;52.710;6.502;2022-11-11T09:55:38;12.40;99.90
52555;DHT22;38455;52.710;6.502;2022-11-11T09:58:18;12.40;99.90
52555;DHT22;38455;52.710;6.502;2022-11-11T10:00:49;12.40;99.90
52555;DHT22;38455;52.710;6.502;2022-11-11T10:03:19;12.50;99.90
52555;DHT22;38455;52.710;6.502;2022-11-11T10:06:31;12.50;99.90
52555;DHT22;38455;52.710;6.502;2022-11-11T10:08:51;12.50;99.90
52555;DHT22;38455;52.710;6.502;2022-11-11T10:14:09;12.50;99.90
52555;DHT22;38455;52.710;6.502;2022-11-11T10:16:57;12.40;99.90
52555;DHT22;38455;52.710;6.502;2022-11-11T10:22:21;12.50;99.90
52555;DHT22;38455;52.710;6.502;2022-11-11T10:24:56;12.60;99.90
52555;DHT22;38455;52.710;6.502;2022-11-11T10:27:23;12.60;99.90
52555;DHT22;38455;52.710;6.502;2022-11-11T10:29:49;12.70;99.90
52555;DHT22;38455;52.710;6.502;2022-11-11T10:34:43;12.80;99.90
52555;DHT22;38455;52.710;6.502;2022-11-11T10:37:24;12.90;99.90
52555;DHT22;38455;52.710;6.502;2022-11-11T10:42:32;12.70;99.90
52555;DHT22;38455;52.710;6.502;2022-11-11T10:45:02;12.60;99.90
52555;DHT22;38455;52.710;6.502;2022-11-11T10:47:56;12.60;99.90
52555;DHT22;38455;52.710;6.502;2022-11-11T10:50:27;12.60;99.90
52555;DHT22;38455;52.710;6.502;2022-11-11T10:53:03;12.70;99.90
52555;DHT22;38455;52.710;6.502;2022-11-11T10:55:45;12.80;99.90
52555;DHT22;38455;52.710;6.502;2022-11-11T10:58:26;12.80;99.90
52555;DHT22;38455;52.710;6.502;2022-11-11T11:00:53;13.00;99.90
52555;DHT22;38455;52.710;6.502;2022-11-11T11:03:33;13.00;99.90
52555;DHT22;38455;52.710;6.502;2022-11-11T11:06:09;13.00;99.90
52555;DHT22;38455;52.710;6.502;2022-11-11T11:08:44;13.20;99.90
52555;DHT22;38455;52.710;6.502;2022-11-11T11:11:18;13.60;99.90
52555;DHT22;38455;52.710;6.502;2022-11-11T11:13:51;14.30;99.90
52555;DHT22;38455;52.710;6.502;2022-11-11T11:16:22;15.10;99.90
52555;DHT22;38455;52.710;6.502;2022-11-11T11:19:13;15.80;99.90
52555;DHT22;38455;52.710;6.502;2022-11-11T11:21:51;16.30;99.90
52555;DHT22;38455;52.710;6.502;2022-11-11T11:24:34;16.80;99.90
52555;DHT22;38455;52.710;6.502;2022-11-11T11:27:10;17.10;99.90
52555;DHT22;38455;52.710;6.502;2022-11-11T11:29:43;17.50;99.90
52555;DHT22;38455;52.710;6.502;2022-11-11T11:32:19;17.50;99.90
52555;DHT22;38455;52.710;6.502;2022-11-11T11:34:53;17.50;99.90
52555;DHT22;38455;52.710;6.502;2022-11-11T11:37:24;17.40;99.90
52555;DHT22;38455;52.710;6.502;2022-11-11T11:40:07;16.90;99.90
52555;DHT22;38455;52.710;6.502;2022-11-11T11:42:37;16.30;99.90
52555;DHT22;38455;52.710;6.502;2022-11-11T11:45:25;15.70;99.90
52555;DHT22;38455;52.710;6.502;2022-11-11T11:50:45;15.10;99.90
52555;DHT22;38455;52.710;6.502;2022-11-11T12:01:28;14.40;99.90
52555;DHT22;38455;52.710;6.502;2022-11-11T12:12:30;13.90;99.90
52555;DHT22;38455;52.710;6.502;2022-11-11T12:21:08;13.70;99.90
52555;DHT22;38455;52.710;6.502;2022-11-11T12:23:50;13.60;99.90
52555;DHT22;38455;52.710;6.502;2022-11-11T12:26:46;13.60;99.90
52555;DHT22;38455;52.710;6.502;2022-11-11T12:46:17;13.20;99.90
52555;DHT22;38455;52.710;6.502;2022-11-11T12:51:34;13.20;99.90
52555;DHT22;38455;52.710;6.502;2022-11-11T12:56:57;13.30;99.90
52555;DHT22;38455;52.710;6.502;2022-11-11T13:05:40;13.20;99.90
52555;DHT22;38455;52.710;6.502;2022-11-11T13:11:13;13.20;99.90
52555;DHT22;38455;52.710;6.502;2022-11-11T13:16:36;13.30;99.90
52555;DHT22;38455;52.710;6.502;2022-11-11T13:21:50;13.20;99.90
52555;DHT22;38455;52.710;6.502;2022-11-11T13:24:20;13.30;99.90
52555;DHT22;38455;52.710;6.502;2022-11-11T13:26:51;13.30;99.90
52555;DHT22;38455;52.710;6.502;2022-11-11T13:29:57;13.30;99.90
52555;DHT22;38455;52.710;6.502;2022-11-11T13:35:00;13.40;99.90
52555;DHT22;38455;52.710;6.502;2022-11-11T13:37:29;13.30;99.90
52555;DHT22;38455;52.710;6.502;2022-11-11T13:40:07;13.30;99.90
52555;DHT22;38455;52.710;6.502;2022-11-11T13:42:47;13.30;99.90
52555;DHT22;38455;52.710;6.502;2022-11-11T13:45:35;13.30;99.90
52555;DHT22;38455;52.710;6.502;2022-11-11T13:48:03;13.30;99.90
52555;DHT22;38455;52.710;6.502;2022-11-11T13:50:38;13.30;99.90
52555;DHT22;38455;52.710;6.502;2022-11-11T13:53:15;13.30;99.90
52555;DHT22;38455;52.710;6.502;2022-11-11T13:55:51;13.30;99.90
52555;DHT22;38455;52.710;6.502;2022-11-11T13:58:27;13.30;99.90
52555;DHT22;38455;52.710;6.502;2022-11-11T14:01:02;13.40;99.90
52555;DHT22;38455;52.710;6.502;2022-11-11T14:03:29;13.30;99.90
52555;DHT22;38455;52.710;6.502;2022-11-11T14:13:53;13.10;99.90
52555;DHT22;38455;52.710;6.502;2022-11-11T14:21:58;13.00;99.90
52555;DHT22;38455;52.710;6.502;2022-11-11T14:24:43;13.00;99.90
52555;DHT22;38455;52.710;6.502;2022-11-11T14:27:16;13.00;99.90
52555;DHT22;38455;52.710;6.502;2022-11-11T14:29:51;12.90;99.90
52555;DHT22;38455;52.710;6.502;2022-11-11T14:32:36;12.90;99.90
52555;DHT22;38455;52.710;6.502;2022-11-11T14:35:30;12.90;99.90
52555;DHT22;38455;52.710;6.502;2022-11-11T14:38:20;12.80;99.90
52555;DHT22;38455;52.710;6.502;2022-11-11T14:40:48;12.80;99.90
52555;DHT22;38455;52.710;6.502;2022-11-11T14:46:01;12.70;99.90
52555;DHT22;38455;52.710;6.502;2022-11-11T14:51:51;12.60;99.90
52555;DHT22;38455;52.710;6.502;2022-11-11T14:54:21;12.50;99.90
52555;DHT22;38455;52.710;6.502;2022-11-11T14:57:09;12.40;99.90
52555;DHT22;38455;52.710;6.502;2022-11-11T14:59:41;12.30;99.90
52555;DHT22;38455;52.710;6.502;2022-11-11T15:02:17;12.20;99.90
52555;DHT22;38455;52.710;6.502;2022-11-11T15:04:46;12.20;99.90
52555;DHT22;38455;52.710;6.502;2022-11-11T15:10:41;12.10;99.90
52555;DHT22;38455;52.710;6.502;2022-11-11T15:13:30;12.10;99.90
52555;DHT22;38455;52.710;6.502;2022-11-11T15:19:10;11.90;99.90
52555;DHT22;38455;52.710;6.502;2022-11-11T15:30:20;11.50;99.90
52555;DHT22;38455;52.710;6.502;2022-11-11T15:33:19;11.30;99.90
52555;DHT22;38455;52.710;6.502;2022-11-11T15:36:00;11.20;99.90
52555;DHT22;38455;52.710;6.502;2022-11-11T15:38:26;11.10;99.90
52555;DHT22;38455;52.710;6.502;2022-11-11T15:40:55;10.90;99.90
52555;DHT22;38455;52.710;6.502;2022-11-11T15:43:32;10.90;99.90
52555;DHT22;38455;52.710;6.502;2022-11-11T15:46:03;10.80;99.90
52555;DHT22;38455;52.710;6.502;2022-11-11T15:48:34;10.70;99.90
52555;DHT22;38455;52.710;6.502;2022-11-11T15:53:46;10.60;99.90
52555;DHT22;38455;52.710;6.502;2022-11-11T15:56:27;10.60;99.90
52555;DHT22;38455;52.710;6.502;2022-11-11T15:58:53;10.50;99.90
52555;DHT22;38455;52.710;6.502;2022-11-11T16:01:25;10.50;99.90
52555;DHT22;38455;52.710;6.502;2022-11-11T16:03:52;10.60;99.90
52555;DHT22;38455;52.710;6.502;2022-11-11T16:06:19;10.60;99.90
52555;DHT22;38455;52.710;6.502;2022-11-11T16:08:48;10.60;99.90
52555;DHT22;38455;52.710;6.502;2022-11-11T16:11:16;10.60;99.90
52555;DHT22;38455;52.710;6.502;2022-11-11T16:14:13;10.60;99.90
52555;DHT22;38455;52.710;6.502;2022-11-11T16:16:42;10.60;99.90
52555;DHT22;38455;52.710;6.502;2022-11-11T16:19:27;10.50;99.90
52555;DHT22;38455;52.710;6.502;2022-11-11T16:24:38;10.40;99.90
52555;DHT22;38455;52.710;6.502;2022-11-11T16:27:05;10.30;99.90
52555;DHT22;38455;52.710;6.502;2022-11-11T16:29:35;10.20;99.90
52555;DHT22;38455;52.710;6.502;2022-11-11T16:32:30;10.10;99.90
52555;DHT22;38455;52.710;6.502;2022-11-11T16:34:57;10.00;99.90
52555;DHT22;38455;52.710;6.502;2022-11-11T16:37:22;10.00;99.90
52555;DHT22;38455;52.710;6.502;2022-11-11T16:39:48;9.90;99.90
52555;DHT22;38455;52.710;6.502;2022-11-11T16:42:25;9.90;99.90
52555;DHT22;38455;52.710;6.502;2022-11-11T16:45:03;9.80;99.90
52555;DHT22;38455;52.710;6.502;2022-11-11T16:52:54;9.50;99.90
52555;DHT22;38455;52.710;6.502;2022-11-11T16:55:34;9.40;99.90
52555;DHT22;38455;52.710;6.502;2022-11-11T16:58:08;9.30;99.90
52555;DHT22;38455;52.710;6.502;2022-11-11T17:00:35;9.30;99.90
52555;DHT22;38455;52.710;6.502;2022-11-11T17:03:14;9.10;99.90
52555;DHT22;38455;52.710;6.502;2022-11-11T17:06:04;9.20;99.90
52555;DHT22;38455;52.710;6.502;2022-11-11T17:08:36;9.20;99.90
52555;DHT22;38455;52.710;6.502;2022-11-11T17:11:04;9.10;99.90
52555;DHT22;38455;52.710;6.502;2022-11-11T17:13:32;9.00;99.90
52555;DHT22;38455;52.710;6.502;2022-11-11T17:16:00;9.00;99.90
52555;DHT22;38455;52.710;6.502;2022-11-11T17:18:33;9.00;99.90
52555;DHT22;38455;52.710;6.502;2022-11-11T17:21:01;9.00;99.90
52555;DHT22;38455;52.710;6.502;2022-11-11T17:23:26;9.00;99.90
52555;DHT22;38455;52.710;6.502;2022-11-11T17:25:57;9.00;99.90
52555;DHT22;38455;52.710;6.502;2022-11-11T17:28:25;8.90;99.90
52555;DHT22;38455;52.710;6.502;2022-11-11T17:30:51;8.80;99.90
52555;DHT22;38455;52.710;6.502;2022-11-11T17:33:16;8.80;99.90
52555;DHT22;38455;52.710;6.502;2022-11-11T17:35:52;8.70;99.90
52555;DHT22;38455;52.710;6.502;2022-11-11T17:38:18;8.60;99.90
52555;DHT22;38455;52.710;6.502;2022-11-11T17:40:47;8.60;99.90
52555;DHT22;38455;52.710;6.502;2022-11-11T17:43:13;8.60;99.90
52555;DHT22;38455;52.710;6.502;2022-11-11T17:45:39;8.50;99.90
52555;DHT22;38455;52.710;6.502;2022-11-11T17:48:05;8.50;99.90
52555;DHT22;38455;52.710;6.502;2022-11-11T17:50:31;8.60;99.90
52555;DHT22;38455;52.710;6.502;2022-11-11T17:52:57;8.60;99.90
52555;DHT22;38455;52.710;6.502;2022-11-11T17:55:24;8.60;99.90
52555;DHT22;38455;52.710;6.502;2022-11-11T17:57:49;8.50;99.90
52555;DHT22;38455;52.710;6.502;2022-11-11T18:00:16;8.40;99.90
52555;DHT22;38455;52.710;6.502;2022-11-11T18:02:42;8.40;99.90
52555;DHT22;38455;52.710;6.502;2022-11-11T18:05:08;8.40;99.90
52555;DHT22;38455;52.710;6.502;2022-11-11T18:07:34;8.30;99.90
52555;DHT22;38455;52.710;6.502;2022-11-11T18:10:00;8.30;99.90
52555;DHT22;38455;52.710;6.502;2022-11-11T18:12:28;8.20;99.90